sensor_id;sensor_type;location;lat;lon;timestamp;temperature;humidity
68026;SHT31;54819;48.030;14.710;2023-01-08T00:01:29;1.86;88.85
68026;SHT31;54819;48.030;14.710;2023-01-08T00:03:55;2.03;88.80
68026;SHT31;54819;48.030;14.710;2023-01-08T00:06:22;2.10;89.78
68026;SHT31;54819;48.030;14.710;2023-01-08T00:08:50;2.06;89.34
68026;SHT31;54819;48.030;14.710;2023-01-08T00:11:17;2.02;89.09
68026;SHT31;54819;48.030;14.710;2023-01-08T00:13:44;2.01;89.72
68026;SHT31;54819;48.030;14.710;2023-01-08T00:16:12;2.01;89.69
68026;SHT31;54819;48.030;14.710;2023-01-08T00:18:41;2.02;90.21
68026;SHT31;54819;48.030;14.710;2023-01-08T00:21:09;2.05;91.12
68026;SHT31;54819;48.030;14.710;2023-01-08T00:23:36;2.11;91.02
68026;SHT31;54819;48.030;14.710;2023-01-08T00:26:06;2.17;90.82
68026;SHT31;54819;48.030;14.710;2023-01-08T00:28:35;2.22;91.25
68026;SHT31;54819;48.030;14.710;2023-01-08T00:31:03;2.28;90.36
68026;SHT31;54819;48.030;14.710;2023-01-08T00:33:32;2.37;89.81
68026;SHT31;54819;48.030;14.710;2023-01-08T00:35:59;2.43;89.83
68026;SHT31;54819;48.030;14.710;2023-01-08T00:38:27;2.46;89.71
68026;SHT31;54819;48.030;14.710;2023-01-08T00:40:54;2.42;89.37
68026;SHT31;54819;48.030;14.710;2023-01-08T00:43:21;2.37;88.91
68026;SHT31;54819;48.030;14.710;2023-01-08T00:45:48;2.34;88.88
68026;SHT31;54819;48.030;14.710;2023-01-08T00:48:17;2.31;88.81
68026;SHT31;54819;48.030;14.710;2023-01-08T00:50:44;2.29;88.60
68026;SHT31;54819;48.030;14.710;2023-01-08T00:53:11;2.26;88.62
68026;SHT31;54819;48.030;14.710;2023-01-08T00:55:37;2.25;88.54
68026;SHT31;54819;48.030;14.710;2023-01-08T00:58:04;2.25;88.40
68026;SHT31;54819;48.030;14.710;2023-01-08T01:00:31;2.17;88.70
68026;SHT31;54819;48.030;14.710;2023-01-08T01:02:58;2.08;88.72
68026;SHT31;54819;48.030;14.710;2023-01-08T01:05:24;2.01;88.65
68026;SHT31;54819;48.030;14.710;2023-01-08T01:07:51;1.96;88.70
68026;SHT31;54819;48.030;14.710;2023-01-08T01:10:18;1.91;88.46
68026;SHT31;54819;48.030;14.710;2023-01-08T01:12:45;1.86;88.48
68026;SHT31;54819;48.030;14.710;2023-01-08T01:15:13;1.79;88.50
68026;SHT31;54819;48.030;14.710;2023-01-08T01:17:41;1.72;88.50
68026;SHT31;54819;48.030;14.710;2023-01-08T01:20:10;1.65;88.50
68026;SHT31;54819;48.030;14.710;2023-01-08T01:22:39;1.58;88.54
68026;SHT31;54819;48.030;14.710;2023-01-08T01:25:06;1.51;88.65
68026;SHT31;54819;48.030;14.710;2023-01-08T01:27:34;1.46;88.79
68026;SHT31;54819;48.030;14.710;2023-01-08T01:30:01;1.41;88.79
68026;SHT31;54819;48.030;14.710;2023-01-08T01:32:29;1.37;88.76
68026;SHT31;54819;48.030;14.710;2023-01-08T01:34:55;1.33;88.70
68026;SHT31;54819;48.030;14.710;2023-01-08T01:37:22;1.28;88.87
68026;SHT31;54819;48.030;14.710;2023-01-08T01:39:49;1.23;88.96
68026;SHT31;54819;48.030;14.710;2023-01-08T01:42:16;1.18;89.06
68026;SHT31;54819;48.030;14.710;2023-01-08T01:45:10;1.14;89.08
68026;SHT31;54819;48.030;14.710;2023-01-08T01:47:40;1.11;89.17
68026;SHT31;54819;48.030;14.710;2023-01-08T01:52:51;1.04;89.34
68026;SHT31;54819;48.030;14.710;2023-01-08T01:55:25;0.99;89.21
68026;SHT31;54819;48.030;14.710;2023-01-08T01:58:35;0.95;89.15
68026;SHT31;54819;48.030;14.710;2023-01-08T02:00:46;0.90;89.15
68026;SHT31;54819;48.030;14.710;2023-01-08T02:03:13;0.85;89.07
68026;SHT31;54819;48.030;14.710;2023-01-08T02:08:36;0.79;88.92
68026;SHT31;54819;48.030;14.710;2023-01-08T02:11:08;0.78;88.60
68026;SHT31;54819;48.030;14.710;2023-01-08T02:13:38;0.76;88.82
68026;SHT31;54819;48.030;14.710;2023-01-08T02:16:12;0.71;89.29
68026;SHT31;54819;48.030;14.710;2023-01-08T02:24:21;0.63;89.78
68026;SHT31;54819;48.030;14.710;2023-01-08T02:26:56;0.66;89.77
68026;SHT31;54819;48.030;14.710;2023-01-08T02:29:24;0.70;89.76
68026;SHT31;54819;48.030;14.710;2023-01-08T02:31:54;0.75;89.79
68026;SHT31;54819;48.030;14.710;2023-01-08T02:34:21;0.79;89.76
68026;SHT31;54819;48.030;14.710;2023-01-08T02:36:54;0.83;89.74
68026;SHT31;54819;48.030;14.710;2023-01-08T02:42:04;0.88;89.83
68026;SHT31;54819;48.030;14.710;2023-01-08T02:44:50;0.87;89.62
68026;SHT31;54819;48.030;14.710;2023-01-08T02:47:23;0.83;89.55
68026;SHT31;54819;48.030;14.710;2023-01-08T02:50:17;0.82;89.80
68026;SHT31;54819;48.030;14.710;2023-01-08T02:52:56;0.85;89.80
68026;SHT31;54819;48.030;14.710;2023-01-08T02:55:28;0.88;89.86
68026;SHT31;54819;48.030;14.710;2023-01-08T02:57:58;0.89;89.90
68026;SHT31;54819;48.030;14.710;2023-01-08T03:00:26;0.91;89.85
68026;SHT31;54819;48.030;14.710;2023-01-08T03:02:59;0.92;89.80
68026;SHT31;54819;48.030;14.710;2023-01-08T03:05:31;0.91;89.79
68026;SHT31;54819;48.030;14.710;2023-01-08T03:07:59;0.93;89.78
68026;SHT31;54819;48.030;14.710;2023-01-08T03:10:27;0.93;89.75
68026;SHT31;54819;48.030;14.710;2023-01-08T03:13:00;0.92;89.69
68026;SHT31;54819;48.030;14.710;2023-01-08T03:15:35;0.91;89.64
68026;SHT31;54819;48.030;14.710;2023-01-08T03:18:08;0.91;89.55
68026;SHT31;54819;48.030;14.710;2023-01-08T03:20:37;0.88;89.46
68026;SHT31;54819;48.030;14.710;2023-01-08T03:23:05;0.84;89.30
68026;SHT31;54819;48.030;14.710;2023-01-08T03:25:36;0.82;89.06
68026;SHT31;54819;48.030;14.710;2023-01-08T03:28:09;0.79;88.85
68026;SHT31;54819;48.030;14.710;2023-01-08T03:30:39;0.69;88.83
68026;SHT31;54819;48.030;14.710;2023-01-08T03:33:08;0.64;88.95
68026;SHT31;54819;48.030;14.710;2023-01-08T03:35:37;0.59;88.86
68026;SHT31;54819;48.030;14.710;2023-01-08T03:38:10;0.57;89.25
68026;SHT31;54819;48.030;14.710;2023-01-08T03:40:44;0.55;89.55
68026;SHT31;54819;48.030;14.710;2023-01-08T03:43:14;0.53;89.67
68026;SHT31;54819;48.030;14.710;2023-01-08T03:45:43;0.50;89.75
68026;SHT31;54819;48.030;14.710;2023-01-08T03:48:14;0.47;89.85
68026;SHT31;54819;48.030;14.710;2023-01-08T03:50:43;0.45;89.74
68026;SHT31;54819;48.030;14.710;2023-01-08T03:53:10;0.45;89.74
68026;SHT31;54819;48.030;14.710;2023-01-08T03:55:37;0.45;89.82
68026;SHT31;54819;48.030;14.710;2023-01-08T03:58:03;0.45;89.87
68026;SHT31;54819;48.030;14.710;2023-01-08T04:00:30;0.44;89.81
68026;SHT31;54819;48.030;14.710;2023-01-08T04:02:57;0.46;89.67
68026;SHT31;54819;48.030;14.710;2023-01-08T04:05:24;0.48;89.65
68026;SHT31;54819;48.030;14.710;2023-01-08T04:07:53;0.50;89.71
68026;SHT31;54819;48.030;14.710;2023-01-08T04:10:21;0.49;89.76
68026;SHT31;54819;48.030;14.710;2023-01-08T04:12:48;0.48;89.98
68026;SHT31;54819;48.030;14.710;2023-01-08T04:15:15;0.46;90.30
68026;SHT31;54819;48.030;14.710;2023-01-08T04:17:42;0.43;90.36
68026;SHT31;54819;48.030;14.710;2023-01-08T04:20:09;0.41;90.31
68026;SHT31;54819;48.030;14.710;2023-01-08T04:22:36;0.37;90.18
68026;SHT31;54819;48.030;14.710;2023-01-08T04:25:03;0.33;90.13
68026;SHT31;54819;48.030;14.710;2023-01-08T04:27:30;0.34;89.97
68026;SHT31;54819;48.030;14.710;2023-01-08T04:29:57;0.34;89.98
68026;SHT31;54819;48.030;14.710;2023-01-08T04:32:24;0.34;90.57
68026;SHT31;54819;48.030;14.710;2023-01-08T04:34:50;0.30;90.52
68026;SHT31;54819;48.030;14.710;2023-01-08T04:37:17;0.29;90.31
68026;SHT31;54819;48.030;14.710;2023-01-08T04:39:44;0.32;90.32
68026;SHT31;54819;48.030;14.710;2023-01-08T04:42:11;0.35;90.36
68026;SHT31;54819;48.030;14.710;2023-01-08T04:44:37;0.37;90.37
68026;SHT31;54819;48.030;14.710;2023-01-08T04:47:04;0.43;90.56
68026;SHT31;54819;48.030;14.710;2023-01-08T04:49:31;0.50;90.42
68026;SHT31;54819;48.030;14.710;2023-01-08T04:51:57;0.60;90.30
68026;SHT31;54819;48.030;14.710;2023-01-08T04:54:24;0.71;90.41
68026;SHT31;54819;48.030;14.710;2023-01-08T04:56:51;0.76;90.50
68026;SHT31;54819;48.030;14.710;2023-01-08T04:59:18;0.83;90.56
68026;SHT31;54819;48.030;14.710;2023-01-08T05:01:44;0.90;90.57
68026;SHT31;54819;48.030;14.710;2023-01-08T05:04:12;1.01;90.45
68026;SHT31;54819;48.030;14.710;2023-01-08T05:06:39;1.12;90.35
68026;SHT31;54819;48.030;14.710;2023-01-08T05:09:05;1.22;90.37
68026;SHT31;54819;48.030;14.710;2023-01-08T05:11:32;1.31;90.28
68026;SHT31;54819;48.030;14.710;2023-01-08T05:14:01;1.41;90.19
68026;SHT31;54819;48.030;14.710;2023-01-08T05:16:28;1.50;90.10
68026;SHT31;54819;48.030;14.710;2023-01-08T05:18:55;1.60;90.09
68026;SHT31;54819;48.030;14.710;2023-01-08T05:21:22;1.68;90.07
68026;SHT31;54819;48.030;14.710;2023-01-08T05:23:48;1.77;90.03
68026;SHT31;54819;48.030;14.710;2023-01-08T05:26:15;1.84;90.11
68026;SHT31;54819;48.030;14.710;2023-01-08T05:28:42;1.91;90.37
68026;SHT31;54819;48.030;14.710;2023-01-08T05:31:09;1.96;90.49
68026;SHT31;54819;48.030;14.710;2023-01-08T05:33:37;1.96;90.74
68026;SHT31;54819;48.030;14.710;2023-01-08T05:36:08;2.01;90.67
68026;SHT31;54819;48.030;14.710;2023-01-08T05:38:36;1.96;91.04
68026;SHT31;54819;48.030;14.710;2023-01-08T05:41:04;1.91;91.11
68026;SHT31;54819;48.030;14.710;2023-01-08T05:43:32;1.91;91.00
68026;SHT31;54819;48.030;14.710;2023-01-08T05:45:59;1.92;90.87
68026;SHT31;54819;48.030;14.710;2023-01-08T05:48:27;1.94;90.73
68026;SHT31;54819;48.030;14.710;2023-01-08T05:50:55;1.95;90.66
68026;SHT31;54819;48.030;14.710;2023-01-08T05:53:22;1.96;90.52
68026;SHT31;54819;48.030;14.710;2023-01-08T05:55:49;1.99;90.39
68026;SHT31;54819;48.030;14.710;2023-01-08T05:58:15;1.99;90.37
68026;SHT31;54819;48.030;14.710;2023-01-08T06:00:45;2.00;90.33
68026;SHT31;54819;48.030;14.710;2023-01-08T06:03:12;2.01;90.29
68026;SHT31;54819;48.030;14.710;2023-01-08T06:05:39;2.02;90.22
68026;SHT31;54819;48.030;14.710;2023-01-08T06:08:06;2.02;90.22
68026;SHT31;54819;48.030;14.710;2023-01-08T06:10:35;2.01;90.28
68026;SHT31;54819;48.030;14.710;2023-01-08T06:13:09;2.00;90.28
68026;SHT31;54819;48.030;14.710;2023-01-08T06:15:36;1.99;90.15
68026;SHT31;54819;48.030;14.710;2023-01-08T06:18:05;1.97;90.11
68026;SHT31;54819;48.030;14.710;2023-01-08T06:20:32;1.98;90.17
68026;SHT31;54819;48.030;14.710;2023-01-08T06:22:59;2.00;90.00
68026;SHT31;54819;48.030;14.710;2023-01-08T06:25:26;2.03;90.00
68026;SHT31;54819;48.030;14.710;2023-01-08T06:27:54;2.05;90.00
68026;SHT31;54819;48.030;14.710;2023-01-08T06:30:21;2.10;90.07
68026;SHT31;54819;48.030;14.710;2023-01-08T06:32:48;2.15;90.05
68026;SHT31;54819;48.030;14.710;2023-01-08T06:35:15;2.20;89.97
68026;SHT31;54819;48.030;14.710;2023-01-08T06:37:42;2.24;89.88
68026;SHT31;54819;48.030;14.710;2023-01-08T06:40:09;2.30;89.80
68026;SHT31;54819;48.030;14.710;2023-01-08T06:42:36;2.36;89.77
68026;SHT31;54819;48.030;14.710;2023-01-08T06:45:02;2.44;89.75
68026;SHT31;54819;48.030;14.710;2023-01-08T06:47:31;2.48;89.69
68026;SHT31;54819;48.030;14.710;2023-01-08T06:49:58;2.55;89.65
68026;SHT31;54819;48.030;14.710;2023-01-08T06:52:24;2.61;89.61
68026;SHT31;54819;48.030;14.710;2023-01-08T06:54:51;2.67;89.55
68026;SHT31;54819;48.030;14.710;2023-01-08T06:57:18;2.72;89.50
68026;SHT31;54819;48.030;14.710;2023-01-08T06:59:45;2.75;89.43
68026;SHT31;54819;48.030;14.710;2023-01-08T07:02:15;2.76;89.42
68026;SHT31;54819;48.030;14.710;2023-01-08T07:04:43;2.76;89.49
68026;SHT31;54819;48.030;14.710;2023-01-08T07:07:11;2.81;89.43
68026;SHT31;54819;48.030;14.710;2023-01-08T07:09:42;2.84;89.35
68026;SHT31;54819;48.030;14.710;2023-01-08T07:12:12;2.88;89.17
68026;SHT31;54819;48.030;14.710;2023-01-08T07:14:39;2.88;89.06
68026;SHT31;54819;48.030;14.710;2023-01-08T07:17:06;2.86;89.12
68026;SHT31;54819;48.030;14.710;2023-01-08T07:19:33;2.85;89.27
68026;SHT31;54819;48.030;14.710;2023-01-08T07:22:00;2.85;89.15
68026;SHT31;54819;48.030;14.710;2023-01-08T07:24:27;2.83;89.24
68026;SHT31;54819;48.030;14.710;2023-01-08T07:26:53;2.80;89.32
68026;SHT31;54819;48.030;14.710;2023-01-08T07:29:20;2.79;89.21
68026;SHT31;54819;48.030;14.710;2023-01-08T07:31:47;2.76;89.27
68026;SHT31;54819;48.030;14.710;2023-01-08T07:34:14;2.63;89.36
68026;SHT31;54819;48.030;14.710;2023-01-08T07:36:41;2.60;89.14
68026;SHT31;54819;48.030;14.710;2023-01-08T07:39:07;2.57;88.97
68026;SHT31;54819;48.030;14.710;2023-01-08T07:41:34;2.53;88.97
68026;SHT31;54819;48.030;14.710;2023-01-08T07:44:01;2.50;89.10
68026;SHT31;54819;48.030;14.710;2023-01-08T07:46:28;2.46;89.46
68026;SHT31;54819;48.030;14.710;2023-01-08T07:48:55;2.48;89.51
68026;SHT31;54819;48.030;14.710;2023-01-08T07:51:22;2.51;89.47
68026;SHT31;54819;48.030;14.710;2023-01-08T07:53:49;2.54;89.47
68026;SHT31;54819;48.030;14.710;2023-01-08T07:56:16;2.56;89.40
68026;SHT31;54819;48.030;14.710;2023-01-08T07:58:43;2.56;89.53
68026;SHT31;54819;48.030;14.710;2023-01-08T08:01:10;2.62;89.51
68026;SHT31;54819;48.030;14.710;2023-01-08T08:03:37;2.71;89.34
68026;SHT31;54819;48.030;14.710;2023-01-08T08:06:05;2.80;89.27
68026;SHT31;54819;48.030;14.710;2023-01-08T08:08:33;2.82;89.15
68026;SHT31;54819;48.030;14.710;2023-01-08T08:11:00;2.90;89.01
68026;SHT31;54819;48.030;14.710;2023-01-08T08:13:27;2.98;88.95
68026;SHT31;54819;48.030;14.710;2023-01-08T08:15:54;3.10;88.90
68026;SHT31;54819;48.030;14.710;2023-01-08T08:18:21;3.16;88.70
68026;SHT31;54819;48.030;14.710;2023-01-08T08:20:48;3.20;88.36
68026;SHT31;54819;48.030;14.710;2023-01-08T08:23:17;3.20;87.78
68026;SHT31;54819;48.030;14.710;2023-01-08T08:25:44;3.29;87.99
68026;SHT31;54819;48.030;14.710;2023-01-08T08:28:11;3.31;87.61
68026;SHT31;54819;48.030;14.710;2023-01-08T08:30:38;3.33;87.47
68026;SHT31;54819;48.030;14.710;2023-01-08T08:33:07;3.38;87.58
68026;SHT31;54819;48.030;14.710;2023-01-08T08:35:35;3.41;87.35
68026;SHT31;54819;48.030;14.710;2023-01-08T08:38:02;3.40;87.11
68026;SHT31;54819;48.030;14.710;2023-01-08T08:40:29;3.43;87.15
68026;SHT31;54819;48.030;14.710;2023-01-08T08:42:57;3.39;86.86
68026;SHT31;54819;48.030;14.710;2023-01-08T08:45:26;3.42;87.14
68026;SHT31;54819;48.030;14.710;2023-01-08T08:47:53;3.42;87.21
68026;SHT31;54819;48.030;14.710;2023-01-08T08:50:20;3.43;87.25
68026;SHT31;54819;48.030;14.710;2023-01-08T08:52:47;3.45;87.31
68026;SHT31;54819;48.030;14.710;2023-01-08T08:55:14;3.48;87.40
68026;SHT31;54819;48.030;14.710;2023-01-08T08:57:46;3.47;87.27
68026;SHT31;54819;48.030;14.710;2023-01-08T09:00:13;3.48;87.24
68026;SHT31;54819;48.030;14.710;2023-01-08T09:02:41;3.48;87.30
68026;SHT31;54819;48.030;14.710;2023-01-08T09:05:09;3.50;87.36
68026;SHT31;54819;48.030;14.710;2023-01-08T09:07:36;3.52;87.34
68026;SHT31;54819;48.030;14.710;2023-01-08T09:10:03;3.52;87.25
68026;SHT31;54819;48.030;14.710;2023-01-08T09:12:30;3.53;87.21
68026;SHT31;54819;48.030;14.710;2023-01-08T09:14:57;3.53;87.12
68026;SHT31;54819;48.030;14.710;2023-01-08T09:17:24;3.56;87.14
68026;SHT31;54819;48.030;14.710;2023-01-08T09:19:51;3.60;87.15
68026;SHT31;54819;48.030;14.710;2023-01-08T09:22:18;3.65;87.18
68026;SHT31;54819;48.030;14.710;2023-01-08T09:24:45;3.72;87.25
68026;SHT31;54819;48.030;14.710;2023-01-08T09:27:12;3.79;87.17
68026;SHT31;54819;48.030;14.710;2023-01-08T09:29:40;3.87;87.20
68026;SHT31;54819;48.030;14.710;2023-01-08T09:32:06;3.97;87.21
68026;SHT31;54819;48.030;14.710;2023-01-08T09:34:34;4.08;87.26
68026;SHT31;54819;48.030;14.710;2023-01-08T09:37:04;4.19;87.20
68026;SHT31;54819;48.030;14.710;2023-01-08T09:39:31;4.28;87.13
68026;SHT31;54819;48.030;14.710;2023-01-08T09:42:02;4.36;86.94
68026;SHT31;54819;48.030;14.710;2023-01-08T09:44:35;4.41;86.80
68026;SHT31;54819;48.030;14.710;2023-01-08T09:47:05;4.44;86.48
68026;SHT31;54819;48.030;14.710;2023-01-08T09:49:42;4.46;86.44
68026;SHT31;54819;48.030;14.710;2023-01-08T09:52:13;4.49;86.37
68026;SHT31;54819;48.030;14.710;2023-01-08T09:54:41;4.53;86.51
68026;SHT31;54819;48.030;14.710;2023-01-08T09:57:11;4.56;86.49
68026;SHT31;54819;48.030;14.710;2023-01-08T09:59:41;4.57;86.44
68026;SHT31;54819;48.030;14.710;2023-01-08T10:02:16;4.61;86.36
68026;SHT31;54819;48.030;14.710;2023-01-08T10:04:46;4.63;86.37
68026;SHT31;54819;48.030;14.710;2023-01-08T10:07:21;4.65;86.33
68026;SHT31;54819;48.030;14.710;2023-01-08T10:10:34;4.66;86.20
68026;SHT31;54819;48.030;14.710;2023-01-08T10:13:02;4.68;86.30
68026;SHT31;54819;48.030;14.710;2023-01-08T10:15:29;4.72;86.29
68026;SHT31;54819;48.030;14.710;2023-01-08T10:18:29;4.74;86.15
68026;SHT31;54819;48.030;14.710;2023-01-08T10:20:50;4.77;86.00
68026;SHT31;54819;48.030;14.710;2023-01-08T10:23:20;4.80;85.83
68026;SHT31;54819;48.030;14.710;2023-01-08T10:25:49;4.82;85.75
68026;SHT31;54819;48.030;14.710;2023-01-08T10:28:24;4.89;85.85
68026;SHT31;54819;48.030;14.710;2023-01-08T10:30:51;4.92;85.83
68026;SHT31;54819;48.030;14.710;2023-01-08T10:33:23;4.96;85.87
68026;SHT31;54819;48.030;14.710;2023-01-08T10:36:12;4.99;85.86
68026;SHT31;54819;48.030;14.710;2023-01-08T10:38:51;5.02;85.79
68026;SHT31;54819;48.030;14.710;2023-01-08T10:41:20;5.02;85.71
68026;SHT31;54819;48.030;14.710;2023-01-08T10:43:52;5.04;85.78
68026;SHT31;54819;48.030;14.710;2023-01-08T10:46:23;5.02;85.80
68026;SHT31;54819;48.030;14.710;2023-01-08T10:48:56;5.04;85.80
68026;SHT31;54819;48.030;14.710;2023-01-08T10:51:26;5.05;85.80
68026;SHT31;54819;48.030;14.710;2023-01-08T10:53:57;5.09;85.75
68026;SHT31;54819;48.030;14.710;2023-01-08T10:56:27;5.10;85.48
68026;SHT31;54819;48.030;14.710;2023-01-08T10:58:57;5.16;85.59
68026;SHT31;54819;48.030;14.710;2023-01-08T11:01:24;5.23;85.62
68026;SHT31;54819;48.030;14.710;2023-01-08T11:03:58;5.22;85.25
68026;SHT31;54819;48.030;14.710;2023-01-08T11:06:30;5.30;85.35
68026;SHT31;54819;48.030;14.710;2023-01-08T11:09:00;5.37;85.12
68026;SHT31;54819;48.030;14.710;2023-01-08T11:11:32;5.45;85.18
68026;SHT31;54819;48.030;14.710;2023-01-08T11:16:57;5.59;84.76
68026;SHT31;54819;48.030;14.710;2023-01-08T11:19:26;5.62;84.76
68026;SHT31;54819;48.030;14.710;2023-01-08T11:33:04;6.00;84.04
68026;SHT31;54819;48.030;14.710;2023-01-08T11:35:33;6.11;84.46
68026;SHT31;54819;48.030;14.710;2023-01-08T11:38:05;6.16;84.01
68026;SHT31;54819;48.030;14.710;2023-01-08T11:43:27;6.27;83.77
68026;SHT31;54819;48.030;14.710;2023-01-08T11:55:08;6.29;81.97
68026;SHT31;54819;48.030;14.710;2023-01-08T12:00:34;6.36;82.86
68026;SHT31;54819;48.030;14.710;2023-01-08T12:03:27;6.35;82.99
68026;SHT31;54819;48.030;14.710;2023-01-08T12:06:03;6.34;82.51
68026;SHT31;54819;48.030;14.710;2023-01-08T12:11:26;6.29;81.97
68026;SHT31;54819;48.030;14.710;2023-01-08T12:17:06;6.26;82.36
68026;SHT31;54819;48.030;14.710;2023-01-08T12:22:35;6.36;82.10
68026;SHT31;54819;48.030;14.710;2023-01-08T12:28:24;6.48;81.94
68026;SHT31;54819;48.030;14.710;2023-01-08T12:34:11;6.57;80.43
68026;SHT31;54819;48.030;14.710;2023-01-08T12:36:50;6.62;80.44
68026;SHT31;54819;48.030;14.710;2023-01-08T12:39:21;6.67;80.94
68026;SHT31;54819;48.030;14.710;2023-01-08T12:41:53;6.74;81.00
68026;SHT31;54819;48.030;14.710;2023-01-08T12:44:25;6.73;80.90
68026;SHT31;54819;48.030;14.710;2023-01-08T12:46:56;6.71;80.96
68026;SHT31;54819;48.030;14.710;2023-01-08T12:49:29;6.76;81.39
68026;SHT31;54819;48.030;14.710;2023-01-08T12:52:06;6.81;81.22
68026;SHT31;54819;48.030;14.710;2023-01-08T12:57:57;7.01;81.10
68026;SHT31;54819;48.030;14.710;2023-01-08T13:00:37;7.11;80.53
68026;SHT31;54819;48.030;14.710;2023-01-08T13:03:10;7.14;80.98
68026;SHT31;54819;48.030;14.710;2023-01-08T13:05:42;7.07;80.59
68026;SHT31;54819;48.030;14.710;2023-01-08T13:08:32;6.85;79.99
68026;SHT31;54819;48.030;14.710;2023-01-08T13:11:01;6.69;79.60
68026;SHT31;54819;48.030;14.710;2023-01-08T13:13:32;6.69;80.17
68026;SHT31;54819;48.030;14.710;2023-01-08T13:18:39;6.55;78.96
68026;SHT31;54819;48.030;14.710;2023-01-08T13:21:16;6.55;79.94
68026;SHT31;54819;48.030;14.710;2023-01-08T13:23:42;6.55;80.25
68026;SHT31;54819;48.030;14.710;2023-01-08T13:26:09;6.53;80.17
68026;SHT31;54819;48.030;14.710;2023-01-08T13:33:45;6.20;79.56
68026;SHT31;54819;48.030;14.710;2023-01-08T13:36:15;6.11;80.69
68026;SHT31;54819;48.030;14.710;2023-01-08T13:38:43;5.98;80.81
68026;SHT31;54819;48.030;14.710;2023-01-08T13:41:22;5.85;80.91
68026;SHT31;54819;48.030;14.710;2023-01-08T13:43:58;5.77;81.06
68026;SHT31;54819;48.030;14.710;2023-01-08T13:46:27;5.70;80.97
68026;SHT31;54819;48.030;14.710;2023-01-08T13:51:45;5.66;81.08
68026;SHT31;54819;48.030;14.710;2023-01-08T13:56:40;5.70;81.48
68026;SHT31;54819;48.030;14.710;2023-01-08T13:59:17;5.78;81.63
68026;SHT31;54819;48.030;14.710;2023-01-08T14:05:13;5.97;81.12
68026;SHT31;54819;48.030;14.710;2023-01-08T14:07:45;6.01;80.88
68026;SHT31;54819;48.030;14.710;2023-01-08T14:10:13;5.98;80.91
68026;SHT31;54819;48.030;14.710;2023-01-08T14:12:41;6.00;80.85
68026;SHT31;54819;48.030;14.710;2023-01-08T14:15:16;6.08;81.12
68026;SHT31;54819;48.030;14.710;2023-01-08T14:17:47;6.09;81.09
68026;SHT31;54819;48.030;14.710;2023-01-08T14:20:19;6.00;81.02
68026;SHT31;54819;48.030;14.710;2023-01-08T14:22:49;5.95;81.10
68026;SHT31;54819;48.030;14.710;2023-01-08T14:25:17;5.94;81.16
68026;SHT31;54819;48.030;14.710;2023-01-08T14:27:58;5.94;81.02
68026;SHT31;54819;48.030;14.710;2023-01-08T14:30:28;5.90;80.40
68026;SHT31;54819;48.030;14.710;2023-01-08T14:32:55;5.87;80.65
68026;SHT31;54819;48.030;14.710;2023-01-08T14:35:30;5.85;81.02
68026;SHT31;54819;48.030;14.710;2023-01-08T14:38:00;5.78;81.21
68026;SHT31;54819;48.030;14.710;2023-01-08T14:40:29;5.71;81.23
68026;SHT31;54819;48.030;14.710;2023-01-08T14:43:05;5.66;81.21
68026;SHT31;54819;48.030;14.710;2023-01-08T14:45:35;5.58;81.41
68026;SHT31;54819;48.030;14.710;2023-01-08T14:50:36;5.42;81.74
68026;SHT31;54819;48.030;14.710;2023-01-08T14:53:07;5.34;81.83
68026;SHT31;54819;48.030;14.710;2023-01-08T14:55:45;5.12;82.16
68026;SHT31;54819;48.030;14.710;2023-01-08T14:58:23;5.02;82.35
68026;SHT31;54819;48.030;14.710;2023-01-08T15:00:53;4.97;82.41
68026;SHT31;54819;48.030;14.710;2023-01-08T15:06:02;4.84;82.48
68026;SHT31;54819;48.030;14.710;2023-01-08T15:08:36;4.76;82.87
68026;SHT31;54819;48.030;14.710;2023-01-08T15:11:26;4.73;82.91
68026;SHT31;54819;48.030;14.710;2023-01-08T15:13:56;4.73;82.92
68026;SHT31;54819;48.030;14.710;2023-01-08T15:16:27;4.73;82.93
68026;SHT31;54819;48.030;14.710;2023-01-08T15:19:16;4.71;83.14
68026;SHT31;54819;48.030;14.710;2023-01-08T15:21:48;4.67;83.39
68026;SHT31;54819;48.030;14.710;2023-01-08T15:24:29;4.63;83.55
68026;SHT31;54819;48.030;14.710;2023-01-08T15:26:58;4.62;83.79
68026;SHT31;54819;48.030;14.710;2023-01-08T15:29:30;4.63;83.83
68026;SHT31;54819;48.030;14.710;2023-01-08T15:34:41;4.68;84.08
68026;SHT31;54819;48.030;14.710;2023-01-08T15:37:09;4.71;84.54
68026;SHT31;54819;48.030;14.710;2023-01-08T15:39:36;4.74;84.50
68026;SHT31;54819;48.030;14.710;2023-01-08T15:42:23;4.79;84.21
68026;SHT31;54819;48.030;14.710;2023-01-08T15:47:41;4.86;84.04
68026;SHT31;54819;48.030;14.710;2023-01-08T15:50:08;4.86;84.10
68026;SHT31;54819;48.030;14.710;2023-01-08T15:52:36;4.90;84.05
68026;SHT31;54819;48.030;14.710;2023-01-08T15:55:06;4.91;84.02
68026;SHT31;54819;48.030;14.710;2023-01-08T15:57:35;4.95;84.02
68026;SHT31;54819;48.030;14.710;2023-01-08T16:00:05;4.97;83.83
68026;SHT31;54819;48.030;14.710;2023-01-08T16:02:40;4.96;83.82
68026;SHT31;54819;48.030;14.710;2023-01-08T16:05:12;4.99;83.88
68026;SHT31;54819;48.030;14.710;2023-01-08T16:07:40;5.01;83.90
68026;SHT31;54819;48.030;14.710;2023-01-08T16:10:07;5.03;83.90
68026;SHT31;54819;48.030;14.710;2023-01-08T16:12:34;5.04;83.82
68026;SHT31;54819;48.030;14.710;2023-01-08T16:15:01;5.06;83.80
68026;SHT31;54819;48.030;14.710;2023-01-08T16:17:28;5.04;83.73
68026;SHT31;54819;48.030;14.710;2023-01-08T16:19:55;5.00;83.69
68026;SHT31;54819;48.030;14.710;2023-01-08T16:22:22;4.94;83.63
68026;SHT31;54819;48.030;14.710;2023-01-08T16:24:49;4.92;83.77
68026;SHT31;54819;48.030;14.710;2023-01-08T16:27:15;4.91;83.78
68026;SHT31;54819;48.030;14.710;2023-01-08T16:29:42;4.88;83.70
68026;SHT31;54819;48.030;14.710;2023-01-08T16:32:09;4.86;83.71
68026;SHT31;54819;48.030;14.710;2023-01-08T16:34:36;4.84;83.80
68026;SHT31;54819;48.030;14.710;2023-01-08T16:37:03;4.83;83.78
68026;SHT31;54819;48.030;14.710;2023-01-08T16:39:29;4.79;83.69
68026;SHT31;54819;48.030;14.710;2023-01-08T16:41:57;4.72;83.82
68026;SHT31;54819;48.030;14.710;2023-01-08T16:44:25;4.67;83.98
68026;SHT31;54819;48.030;14.710;2023-01-08T16:46:55;4.67;83.96
68026;SHT31;54819;48.030;14.710;2023-01-08T16:49:22;4.64;84.18
68026;SHT31;54819;48.030;14.710;2023-01-08T16:51:48;4.61;84.31
68026;SHT31;54819;48.030;14.710;2023-01-08T16:54:16;4.58;84.48
68026;SHT31;54819;48.030;14.710;2023-01-08T16:56:42;4.54;84.55
68026;SHT31;54819;48.030;14.710;2023-01-08T16:59:10;4.51;84.43
68026;SHT31;54819;48.030;14.710;2023-01-08T17:01:48;4.44;84.28
68026;SHT31;54819;48.030;14.710;2023-01-08T17:04:16;4.34;84.53
68026;SHT31;54819;48.030;14.710;2023-01-08T17:06:43;4.27;84.50
68026;SHT31;54819;48.030;14.710;2023-01-08T17:09:10;4.20;84.60
68026;SHT31;54819;48.030;14.710;2023-01-08T17:11:38;4.14;84.58
68026;SHT31;54819;48.030;14.710;2023-01-08T17:14:05;4.10;84.74